createdAt,value
2023-04-18T00:00:13.083Z,9.31
2023-04-18T00:02:39.455Z,9.32
2023-04-18T00:05:05.791Z,9.27
2023-04-18T00:07:32.077Z,9.35
2023-04-18T00:09:58.356Z,9.29
2023-04-18T00:12:24.621Z,9.14
2023-04-18T00:14:50.915Z,9.00
2023-04-18T00:17:17.169Z,8.92
2023-04-18T00:19:43.471Z,8.89
2023-04-18T00:22:09.760Z,8.90
2023-04-18T00:24:36.048Z,8.87
2023-04-18T00:27:02.348Z,8.89
2023-04-18T00:29:28.609Z,8.85
2023-04-18T00:31:54.891Z,8.88
2023-04-18T00:34:21.173Z,8.91
2023-04-18T00:36:47.418Z,8.86
2023-04-18T00:39:13.669Z,8.83
2023-04-18T00:41:39.925Z,8.83
2023-04-18T00:44:06.244Z,8.82
2023-04-18T00:46:32.659Z,8.87
2023-04-18T00:48:58.953Z,8.87
2023-04-18T00:51:25.202Z,8.86
2023-04-18T00:53:51.472Z,8.88
2023-04-18T00:56:17.793Z,8.89
2023-04-18T00:58:44.059Z,8.89
2023-04-18T01:01:10.334Z,8.86
2023-04-18T01:03:36.749Z,8.90
2023-04-18T01:06:03.110Z,8.85
2023-04-18T01:08:29.377Z,8.89
2023-04-18T01:10:55.632Z,8.87
2023-04-18T01:13:21.873Z,8.94
2023-04-18T01:15:48.127Z,8.95
2023-04-18T01:18:14.439Z,8.95
2023-04-18T01:20:40.710Z,8.92
2023-04-18T01:23:06.970Z,8.96
2023-04-18T01:25:33.226Z,8.95
2023-04-18T01:27:59.509Z,8.92
2023-04-18T01:30:25.782Z,8.92
2023-04-18T01:32:52.076Z,8.89
2023-04-18T01:35:18.379Z,8.88
2023-04-18T01:37:44.650Z,8.87
2023-04-18T01:40:10.945Z,8.95
2023-04-18T01:42:37.186Z,8.95
2023-04-18T01:45:03.471Z,8.98
2023-04-18T01:47:29.782Z,8.86
2023-04-18T01:49:56.044Z,8.84
2023-04-18T01:52:22.302Z,8.85
2023-04-18T01:54:48.564Z,8.91
2023-04-18T01:57:14.803Z,8.92
2023-04-18T01:59:41.049Z,8.91
2023-04-18T02:02:07.367Z,8.92
2023-04-18T02:04:33.681Z,8.90
2023-04-18T02:06:59.962Z,8.87
2023-04-18T02:09:26.245Z,8.76
2023-04-18T02:11:52.512Z,8.79
2023-04-18T02:14:18.760Z,8.80
2023-04-18T02:16:45.048Z,8.84
2023-04-18T02:19:11.365Z,8.85
2023-04-18T02:21:37.629Z,8.91
2023-04-18T02:24:03.914Z,8.92
2023-04-18T02:26:30.158Z,8.93
2023-04-18T02:28:56.410Z,8.93
2023-04-18T02:31:22.735Z,8.94
2023-04-18T02:33:49.020Z,8.90
2023-04-18T02:36:15.294Z,8.86
2023-04-18T02:38:41.608Z,8.82
2023-04-18T02:41:07.883Z,8.83
2023-04-18T02:43:34.173Z,8.83
2023-04-18T02:46:00.520Z,8.81
2023-04-18T02:48:26.838Z,8.86
2023-04-18T02:50:53.201Z,8.91
2023-04-18T02:53:19.446Z,8.94
2023-04-18T02:55:45.726Z,8.98
2023-04-18T02:58:11.984Z,9.01
2023-04-18T03:00:38.246Z,9.02
2023-04-18T03:03:04.624Z,9.05
2023-04-18T03:05:30.937Z,9.07
2023-04-18T03:07:57.196Z,9.08
2023-04-18T03:10:23.466Z,9.14
2023-04-18T03:12:49.722Z,9.13
2023-04-18T03:15:15.959Z,9.12
2023-04-18T03:17:42.239Z,9.12
2023-04-18T03:20:08.481Z,9.11
2023-04-18T03:22:34.789Z,9.12
2023-04-18T03:25:01.046Z,9.11
2023-04-18T03:27:27.301Z,9.13
2023-04-18T03:29:53.556Z,9.12
2023-04-18T03:32:19.845Z,9.14
2023-04-18T03:34:46.098Z,9.12
2023-04-18T03:37:12.344Z,9.13
2023-04-18T03:39:38.624Z,9.11
2023-04-18T03:42:04.879Z,9.10
2023-04-18T03:44:31.129Z,9.12
2023-04-18T03:46:57.421Z,9.12
2023-04-18T03:49:23.680Z,9.10
2023-04-18T03:51:49.933Z,9.07
2023-04-18T03:54:16.432Z,9.07
2023-04-18T03:56:42.869Z,9.08
2023-04-18T03:59:09.137Z,9.11
2023-04-18T04:01:35.414Z,9.05
2023-04-18T04:04:01.897Z,9.05
2023-04-18T04:06:28.261Z,9.05
2023-04-18T04:08:54.536Z,9.04
2023-04-18T04:11:20.790Z,9.02
2023-04-18T04:13:47.045Z,9.03
2023-04-18T04:16:13.303Z,9.02
2023-04-18T04:18:39.638Z,9.00
2023-04-18T04:21:05.933Z,9.00
2023-04-18T04:23:32.189Z,9.05
2023-04-18T04:25:58.449Z,9.07
2023-04-18T04:28:24.696Z,9.05
2023-04-18T04:30:50.957Z,9.05
2023-04-18T04:33:17.702Z,9.07
2023-04-18T04:35:43.979Z,9.06
2023-04-18T04:38:10.232Z,9.00
2023-04-18T04:40:36.492Z,9.04
2023-04-18T04:43:02.763Z,9.05
2023-04-18T04:45:29.035Z,9.07
2023-04-18T04:47:55.355Z,9.04
2023-04-18T04:50:21.631Z,9.03
2023-04-18T04:52:47.904Z,9.04
2023-04-18T04:55:14.198Z,9.01
2023-04-18T04:57:40.484Z,9.02
2023-04-18T05:00:06.737Z,9.03
2023-04-18T05:02:33.111Z,9.02
2023-04-18T05:04:59.419Z,9.01
2023-04-18T05:07:25.674Z,9.00
2023-04-18T05:09:51.921Z,8.97
2023-04-18T05:12:18.182Z,8.96
2023-04-18T05:14:44.435Z,8.93
2023-04-18T05:17:10.726Z,8.90
2023-04-18T05:19:37.008Z,8.90
2023-04-18T05:22:03.290Z,8.87
2023-04-18T05:24:29.555Z,8.88
2023-04-18T05:26:55.798Z,8.86
2023-04-18T05:29:22.045Z,8.85
2023-04-18T05:31:48.301Z,8.78
2023-04-18T05:34:14.673Z,8.72
2023-04-18T05:36:41.075Z,8.73
2023-04-18T05:39:07.333Z,8.70
2023-04-18T05:41:33.578Z,8.63
2023-04-18T05:44:05.476Z,8.66
2023-04-18T05:46:32.268Z,8.66
2023-04-18T05:48:58.559Z,8.68
2023-04-18T05:51:24.827Z,8.72
2023-04-18T05:53:51.099Z,8.74
2023-04-18T05:56:17.369Z,8.79
2023-04-18T05:58:43.743Z,8.86
2023-04-18T06:01:10.064Z,8.88
2023-04-18T06:03:36.535Z,8.91
2023-04-18T06:06:03.104Z,8.94
2023-04-18T06:08:29.441Z,8.89
2023-04-18T06:10:55.740Z,8.98
2023-04-18T06:13:22.041Z,8.99
2023-04-18T06:15:48.448Z,9.04
2023-04-18T06:18:14.755Z,9.02
2023-04-18T06:20:41.010Z,9.03
2023-04-18T06:23:07.275Z,9.07
2023-04-18T06:25:33.561Z,9.11
2023-04-18T06:27:59.830Z,9.13
2023-04-18T06:30:26.102Z,9.17
2023-04-18T06:32:52.465Z,9.21
2023-04-18T06:35:18.863Z,9.23
2023-04-18T06:37:45.152Z,9.30
2023-04-18T06:40:11.427Z,9.33
2023-04-18T06:42:37.742Z,9.37
2023-04-18T06:45:04.038Z,9.43
2023-04-18T06:47:30.426Z,9.51
2023-04-18T06:49:56.773Z,9.54
2023-04-18T06:52:23.045Z,9.54
2023-04-18T06:54:49.350Z,9.58
2023-04-18T06:57:15.642Z,9.58
2023-04-18T06:59:41.911Z,9.55
2023-04-18T07:02:08.235Z,9.62
2023-04-18T07:04:34.623Z,9.63
2023-04-18T07:07:00.932Z,9.59
2023-04-18T07:09:27.202Z,9.43
2023-04-18T07:11:53.466Z,9.29
2023-04-18T07:14:19.710Z,9.36
2023-04-18T07:16:45.994Z,9.30
2023-04-18T07:19:12.282Z,9.26
2023-04-18T07:21:38.548Z,9.25
2023-04-18T07:24:04.832Z,9.30
2023-04-18T07:26:31.098Z,9.31
2023-04-18T07:28:57.351Z,9.15
2023-04-18T07:31:23.655Z,9.14
2023-04-18T07:33:49.941Z,9.07
2023-04-18T07:36:16.186Z,9.14
2023-04-18T07:38:42.435Z,9.05
2023-04-18T07:41:08.710Z,9.20
2023-04-18T07:43:34.987Z,9.23
2023-04-18T07:46:01.362Z,9.21
2023-04-18T07:48:27.664Z,9.26
2023-04-18T07:50:53.929Z,9.39
2023-04-18T07:53:20.197Z,9.57
2023-04-18T07:55:46.450Z,9.71
2023-04-18T07:58:12.708Z,9.78
2023-04-18T08:00:39.025Z,9.93
2023-04-18T08:03:05.492Z,10.00
2023-04-18T08:05:31.853Z,10.08
2023-04-18T08:07:58.132Z,10.16
2023-04-18T08:10:24.475Z,10.21
2023-04-18T08:12:50.753Z,10.25
2023-04-18T08:15:17.009Z,10.30
2023-04-18T08:17:43.329Z,10.33
2023-04-18T08:20:09.607Z,10.32
2023-04-18T08:22:44.077Z,10.37
2023-04-18T08:25:16.667Z,10.48
2023-04-18T08:27:42.931Z,10.60
2023-04-18T08:30:09.258Z,10.63
2023-04-18T08:32:35.578Z,10.67
2023-04-18T08:35:01.922Z,10.76
2023-04-18T08:37:28.185Z,10.85
2023-04-18T08:39:54.492Z,11.06
2023-04-18T08:42:20.772Z,11.12
2023-04-18T08:44:47.063Z,11.06
2023-04-18T08:47:13.316Z,11.15
2023-04-18T08:49:39.575Z,11.32
2023-04-18T08:52:05.925Z,11.30
2023-04-18T08:54:32.208Z,11.36
2023-04-18T08:56:58.470Z,11.29
2023-04-18T08:59:24.745Z,11.28
2023-04-18T09:01:51.113Z,11.27
2023-04-18T09:04:17.439Z,11.17
2023-04-18T09:06:43.757Z,11.16
2023-04-18T09:09:10.051Z,11.27
2023-04-18T09:11:36.290Z,11.37
2023-04-18T09:14:02.731Z,11.41
2023-04-18T09:16:29.069Z,11.43
2023-04-18T09:18:55.363Z,11.45
2023-04-18T09:21:21.628Z,11.51
2023-04-18T09:23:47.946Z,11.49
2023-04-18T09:26:14.273Z,11.49
2023-04-18T09:28:40.534Z,11.51
2023-04-18T09:31:06.872Z,11.48
2023-04-18T09:33:33.215Z,11.55
2023-04-18T09:35:59.537Z,11.58
2023-04-18T09:38:25.789Z,11.56
2023-04-18T09:40:52.062Z,11.45
2023-04-18T09:43:18.311Z,11.53
2023-04-18T09:45:44.590Z,11.64
2023-04-18T09:48:10.909Z,11.70
2023-04-18T09:50:37.386Z,11.72
2023-04-18T09:53:03.665Z,11.62
2023-04-18T09:55:29.937Z,11.66
2023-04-18T09:57:56.235Z,11.67
2023-04-18T10:00:22.478Z,11.69
2023-04-18T10:02:48.860Z,11.67
2023-04-18T10:05:15.251Z,11.69
2023-04-18T10:07:41.549Z,11.81
2023-04-18T10:10:07.805Z,11.80
2023-04-18T10:12:34.097Z,11.82
2023-04-18T10:15:00.377Z,11.51
2023-04-18T10:17:28.099Z,11.64
2023-04-18T10:19:55.671Z,11.47
2023-04-18T10:22:21.953Z,11.45
2023-04-18T10:24:48.223Z,11.61
2023-04-18T10:27:14.517Z,11.60
2023-04-18T10:29:40.781Z,11.65
2023-04-18T10:32:07.046Z,11.47
2023-04-18T10:34:33.306Z,11.65
2023-04-18T10:36:59.549Z,11.84
2023-04-18T10:39:25.813Z,11.84
2023-04-18T10:41:52.072Z,11.91
2023-04-18T10:44:18.480Z,11.94
2023-04-18T10:46:44.845Z,11.98
2023-04-18T10:49:11.273Z,12.07
2023-04-18T10:51:37.621Z,12.20
2023-04-18T10:54:03.890Z,12.26
2023-04-18T10:56:30.177Z,12.27
2023-04-18T10:58:56.456Z,12.20
2023-04-18T11:01:22.742Z,12.23
2023-04-18T11:03:49.150Z,12.08
2023-04-18T11:06:15.488Z,12.12
2023-04-18T11:08:42.135Z,12.35
2023-04-18T11:11:08.420Z,12.23
2023-04-18T11:13:34.713Z,11.97
2023-04-18T11:16:01.006Z,12.30
2023-04-18T11:18:27.325Z,12.42
2023-04-18T11:20:53.587Z,12.62
2023-04-18T11:23:19.830Z,12.68
2023-04-18T11:25:46.147Z,12.75
2023-04-18T11:28:12.423Z,12.70
2023-04-18T11:30:38.723Z,12.43
2023-04-18T11:33:05.053Z,12.70
2023-04-18T11:35:31.332Z,12.88
2023-04-18T11:37:57.593Z,12.97
2023-04-18T11:40:23.876Z,13.04
2023-04-18T11:42:50.176Z,13.07
2023-04-18T11:45:16.476Z,13.31
2023-04-18T11:47:42.883Z,13.35
2023-04-18T11:50:09.270Z,13.46
2023-04-18T11:52:35.547Z,13.57
2023-04-18T11:55:01.806Z,13.63
2023-04-18T11:57:28.128Z,13.74
2023-04-18T11:59:54.380Z,13.73
2023-04-18T12:02:20.822Z,13.88
2023-04-18T12:04:47.361Z,13.84
2023-04-18T12:07:13.789Z,13.80
2023-04-18T12:09:40.085Z,13.80
2023-04-18T12:12:06.375Z,13.80
2023-04-18T12:14:32.682Z,13.90
2023-04-18T12:16:58.961Z,13.75
2023-04-18T12:19:25.249Z,13.88
2023-04-18T12:21:51.540Z,14.03
2023-04-18T12:24:17.813Z,14.08
2023-04-18T12:26:44.104Z,14.24
2023-04-18T12:29:10.366Z,14.18
2023-04-18T12:31:36.699Z,14.37
2023-04-18T12:34:02.992Z,14.60
2023-04-18T12:36:29.253Z,14.78
2023-04-18T12:38:55.530Z,14.86
2023-04-18T12:41:21.815Z,14.85
2023-04-18T12:43:48.089Z,14.74
2023-04-18T12:46:14.365Z,14.41
2023-04-18T12:48:40.699Z,14.72
2023-04-18T12:51:06.963Z,14.84
2023-04-18T12:53:33.247Z,14.79
2023-04-18T12:55:59.505Z,15.03
2023-04-18T12:58:25.829Z,15.01
2023-04-18T13:00:52.148Z,15.09
2023-04-18T13:03:18.578Z,15.17
2023-04-18T13:05:44.903Z,15.26
2023-04-18T13:08:17.218Z,15.46
2023-04-18T13:10:44.373Z,15.66
2023-04-18T13:13:10.697Z,15.77
2023-04-18T13:15:38.802Z,15.86
2023-04-18T13:18:06.540Z,15.94
2023-04-18T13:20:33.113Z,15.94
2023-04-18T13:22:59.432Z,16.04
2023-04-18T13:25:25.767Z,15.99
2023-04-18T13:27:52.042Z,15.85
2023-04-18T13:30:18.297Z,15.91
2023-04-18T13:32:44.631Z,16.00
2023-04-18T13:35:10.942Z,16.18
2023-04-18T13:37:37.589Z,16.40
2023-04-18T13:40:03.972Z,16.64
2023-04-18T13:42:30.252Z,16.63
2023-04-18T13:44:56.506Z,16.87
2023-04-18T13:47:22.811Z,16.95
2023-04-18T13:49:49.083Z,17.03
2023-04-18T13:52:15.366Z,16.95
2023-04-18T13:54:41.664Z,17.18
2023-04-18T13:57:07.948Z,17.07
2023-04-18T13:59:34.221Z,17.18
2023-04-18T14:02:00.689Z,17.36
2023-04-18T14:04:27.398Z,17.38
2023-04-18T14:06:53.906Z,17.64
2023-04-18T14:09:20.185Z,17.76
2023-04-18T14:11:46.543Z,17.80
2023-04-18T14:14:12.821Z,17.85
2023-04-18T14:16:39.476Z,18.00
2023-04-18T14:19:05.838Z,17.89
2023-04-18T14:21:32.184Z,18.04
2023-04-18T14:23:58.484Z,18.10
2023-04-18T14:26:24.797Z,18.13
2023-04-18T14:28:51.211Z,18.18
2023-04-18T14:31:17.551Z,18.30
2023-04-18T14:33:43.818Z,18.58
2023-04-18T14:36:10.075Z,18.86
2023-04-18T14:38:36.335Z,19.03
2023-04-18T14:41:02.600Z,19.13
2023-04-18T14:43:28.868Z,19.38
2023-04-18T14:45:55.137Z,19.46
2023-04-18T14:48:21.518Z,19.53
2023-04-18T14:50:47.821Z,19.72
2023-04-18T14:53:14.125Z,19.81
2023-04-18T14:55:40.408Z,19.91
2023-04-18T14:58:07.670Z,20.04
2023-04-18T15:00:33.936Z,19.76
2023-04-18T15:03:00.325Z,19.55
2023-04-18T15:05:26.678Z,19.76
2023-04-18T15:07:52.948Z,19.48
2023-04-18T15:10:19.243Z,19.42
2023-04-18T15:12:45.557Z,19.73
2023-04-18T15:15:11.809Z,19.69
2023-04-18T15:17:38.115Z,19.65
2023-04-18T15:20:04.440Z,19.68
2023-04-18T15:22:30.736Z,19.73
2023-04-18T15:24:57.019Z,20.01
2023-04-18T15:27:23.332Z,20.23
2023-04-18T15:29:49.639Z,20.32
2023-04-18T15:32:15.988Z,20.53
2023-04-18T15:34:42.296Z,20.64
2023-04-18T15:37:08.556Z,20.61
2023-04-18T15:39:34.818Z,20.78
2023-04-18T15:42:01.177Z,20.71
2023-04-18T15:44:27.449Z,20.67
2023-04-18T15:46:53.734Z,20.89
2023-04-18T15:49:20.031Z,21.11
2023-04-18T15:51:46.301Z,21.08
2023-04-18T15:54:12.943Z,21.19
2023-04-18T15:56:39.408Z,21.33
2023-04-18T15:59:05.672Z,21.31
2023-04-18T16:01:31.998Z,21.24
2023-04-18T16:03:58.398Z,21.27
2023-04-18T16:06:24.732Z,21.41
2023-04-18T16:08:51.009Z,21.50
2023-04-18T16:11:17.255Z,21.52
2023-04-18T16:13:43.551Z,21.53
2023-04-18T16:16:09.847Z,21.31
2023-04-18T16:18:36.162Z,21.46
2023-04-18T16:21:02.477Z,21.17
2023-04-18T16:23:28.754Z,21.41
2023-04-18T16:25:55.011Z,21.42
2023-04-18T16:28:21.337Z,21.48
2023-04-18T16:30:47.617Z,21.58
2023-04-18T16:33:14.037Z,21.70
2023-04-18T16:35:40.431Z,21.65
2023-04-18T16:38:06.726Z,21.86
2023-04-18T16:40:33.019Z,22.07
2023-04-18T16:42:59.296Z,22.36
2023-04-18T16:45:25.570Z,22.51
2023-04-18T16:47:51.933Z,22.66
2023-04-18T16:50:18.254Z,22.97
2023-04-18T16:52:44.525Z,23.35
2023-04-18T16:55:10.804Z,23.66
2023-04-18T16:57:37.068Z,24.14
2023-04-18T17:00:03.355Z,24.60
2023-04-18T17:02:29.978Z,25.04
2023-04-18T17:04:56.526Z,25.37
2023-04-18T17:07:22.969Z,25.78
2023-04-18T17:09:49.273Z,25.37
2023-04-18T17:12:15.618Z,25.73
2023-04-18T17:14:41.924Z,25.99
2023-04-18T17:17:08.223Z,25.93
2023-04-18T17:19:34.573Z,25.64
2023-04-18T17:22:00.888Z,24.61
2023-04-18T17:24:27.187Z,22.93
2023-04-18T17:26:53.594Z,22.13
2023-04-18T17:29:19.895Z,21.52
2023-04-18T17:31:46.209Z,21.07
2023-04-18T17:34:12.471Z,20.67
2023-04-18T17:36:38.742Z,20.25
2023-04-18T17:39:05.041Z,19.97
2023-04-18T17:41:31.431Z,19.74
2023-04-18T17:43:57.682Z,19.27
2023-04-18T17:46:24.011Z,19.33
2023-04-18T17:48:50.336Z,19.16
2023-04-18T17:51:16.663Z,19.04
2023-04-18T17:53:42.960Z,18.88
2023-04-18T17:56:09.276Z,18.79
2023-04-18T17:58:35.549Z,18.70
2023-04-18T18:01:01.856Z,18.67
2023-04-18T18:03:28.290Z,18.43
2023-04-18T18:05:54.918Z,18.37
2023-04-18T18:08:21.306Z,18.13
2023-04-18T18:10:47.613Z,17.79
2023-04-18T18:13:13.953Z,17.51
2023-04-18T18:15:40.248Z,17.55
2023-04-18T18:18:06.589Z,17.58
2023-04-18T18:20:32.968Z,16.85
2023-04-18T18:22:59.264Z,17.19
2023-04-18T18:25:25.592Z,17.21
2023-04-18T18:27:51.856Z,16.86
2023-04-18T18:30:18.225Z,16.73
2023-04-18T18:32:44.506Z,16.85
2023-04-18T18:35:10.812Z,16.84
2023-04-18T18:37:37.126Z,16.45
2023-04-18T18:40:03.439Z,16.62
2023-04-18T18:42:29.699Z,16.63
2023-04-18T18:44:55.959Z,16.50
2023-04-18T18:47:22.405Z,16.59
2023-04-18T18:49:48.760Z,16.43
2023-04-18T18:52:15.025Z,15.94
2023-04-18T18:54:41.287Z,16.11
2023-04-18T18:57:07.577Z,16.04
2023-04-18T18:59:33.835Z,15.84
2023-04-18T19:02:00.204Z,15.54
2023-04-18T19:04:26.659Z,15.70
2023-04-18T19:06:52.972Z,15.43
2023-04-18T19:09:19.269Z,14.78
2023-04-18T19:11:45.563Z,14.98
2023-04-18T19:14:11.820Z,14.74
2023-04-18T19:16:38.121Z,14.82
2023-04-18T19:19:04.472Z,14.85
2023-04-18T19:21:30.747Z,14.84
2023-04-18T19:23:57.032Z,14.74
2023-04-18T19:26:23.301Z,14.63
2023-04-18T19:28:49.601Z,14.82
2023-04-18T19:31:15.903Z,14.91
2023-04-18T19:33:42.200Z,14.98
2023-04-18T19:36:08.518Z,14.56
2023-04-18T19:38:34.789Z,14.81
2023-04-18T19:41:01.135Z,14.76
2023-04-18T19:43:27.398Z,14.81
2023-04-18T19:45:55.292Z,14.49
2023-04-18T19:48:21.756Z,14.63
2023-04-18T19:50:48.059Z,14.79
2023-04-18T19:53:14.507Z,14.83
2023-04-18T19:55:40.895Z,14.88
2023-04-18T19:58:07.159Z,14.83
2023-04-18T20:00:33.446Z,14.83
2023-04-18T20:02:59.889Z,14.62
2023-04-18T20:05:26.385Z,14.55
2023-04-18T20:07:52.692Z,14.45
2023-04-18T20:10:18.970Z,14.50
2023-04-18T20:12:45.213Z,14.41
2023-04-18T20:15:11.470Z,14.28
2023-04-18T20:17:37.751Z,14.22
2023-04-18T20:20:04.107Z,14.21
2023-04-18T20:22:30.383Z,14.07
2023-04-18T20:24:56.641Z,14.01
2023-04-18T20:27:22.914Z,14.07
2023-04-18T20:29:49.203Z,13.89
2023-04-18T20:32:15.548Z,13.80
2023-04-18T20:34:41.885Z,13.90
2023-04-18T20:37:08.155Z,13.95
2023-04-18T20:39:34.524Z,14.01
2023-04-18T20:42:00.821Z,14.03
2023-04-18T20:44:27.095Z,14.01
2023-04-18T20:46:53.397Z,13.82
2023-04-18T20:49:19.673Z,13.77
2023-04-18T20:51:46.025Z,13.73
2023-04-18T20:54:12.714Z,13.75
2023-04-18T20:56:39.145Z,13.54
2023-04-18T20:59:05.422Z,13.36
2023-04-18T21:01:31.692Z,13.44
2023-04-18T21:03:58.072Z,13.32
2023-04-18T21:06:24.513Z,13.25
2023-04-18T21:08:50.798Z,13.11
2023-04-18T21:11:18.081Z,13.07
2023-04-18T21:13:44.348Z,13.00
2023-04-18T21:16:10.733Z,12.88
2023-04-18T21:18:37.144Z,13.00
2023-04-18T21:21:03.446Z,13.02
2023-04-18T21:23:29.723Z,13.07
2023-04-18T21:25:55.989Z,13.00
2023-04-18T21:28:22.258Z,13.03
2023-04-18T21:30:48.529Z,13.13
2023-04-18T21:33:14.795Z,13.12
2023-04-18T21:35:41.068Z,13.12
2023-04-18T21:38:07.332Z,13.17
2023-04-18T21:40:33.578Z,13.13
2023-04-18T21:42:59.830Z,13.11
2023-04-18T21:45:26.138Z,13.00
2023-04-18T21:47:52.487Z,12.85
2023-04-18T21:50:18.793Z,12.69
2023-04-18T21:52:45.069Z,12.49
2023-04-18T21:55:11.342Z,12.47
2023-04-18T21:57:37.588Z,12.46
2023-04-18T22:00:03.864Z,12.39
2023-04-18T22:02:30.248Z,12.43
2023-04-18T22:04:56.645Z,12.37
2023-04-18T22:07:22.907Z,12.35
2023-04-18T22:09:49.185Z,12.34
2023-04-18T22:12:15.465Z,12.29
2023-04-18T22:14:41.737Z,12.20
2023-04-18T22:17:07.986Z,12.15
2023-04-18T22:19:34.233Z,12.16
2023-04-18T22:22:00.487Z,12.00
2023-04-18T22:24:26.737Z,11.78
2023-04-18T22:26:53.010Z,11.69
2023-04-18T22:29:19.300Z,11.64
2023-04-18T22:31:45.542Z,11.52
2023-04-18T22:34:11.812Z,11.55
2023-04-18T22:36:38.107Z,11.51
2023-04-18T22:39:04.407Z,11.32
2023-04-18T22:41:30.673Z,11.36
2023-04-18T22:43:56.966Z,11.40
2023-04-18T22:46:23.256Z,11.37
2023-04-18T22:48:49.553Z,11.39
2023-04-18T22:51:15.854Z,11.26
2023-04-18T22:53:42.094Z,11.14
2023-04-18T22:56:08.357Z,11.26
2023-04-18T22:58:34.616Z,11.27
2023-04-18T23:01:00.900Z,11.31
2023-04-18T23:03:27.349Z,11.25
2023-04-18T23:05:53.744Z,11.19
2023-04-18T23:08:20.006Z,11.10
2023-04-18T23:10:46.265Z,11.15
2023-04-18T23:13:12.521Z,11.15
2023-04-18T23:15:38.820Z,11.04
2023-04-18T23:18:05.124Z,11.06
2023-04-18T23:20:31.419Z,11.11
2023-04-18T23:22:57.686Z,11.14
2023-04-18T23:25:23.962Z,11.23
2023-04-18T23:27:50.226Z,11.18
2023-04-18T23:30:16.537Z,11.17
2023-04-18T23:32:42.854Z,11.19
2023-04-18T23:35:09.167Z,11.26
2023-04-18T23:37:35.521Z,11.27
2023-04-18T23:40:01.876Z,11.26
2023-04-18T23:42:28.160Z,11.34
2023-04-18T23:44:54.441Z,11.38
2023-04-18T23:47:20.858Z,11.38
2023-04-18T23:49:47.194Z,11.31
2023-04-18T23:52:13.442Z,11.26
2023-04-18T23:54:39.810Z,11.17
2023-04-18T23:57:06.095Z,11.14
2023-04-18T23:59:32.343Z,11.15
